Time;durP1;ratioP1;P1;durP2;ratioP2;P2;SDS_P1;SDS_P2;PMS_P1;PMS_P2;Temp;Humidity;BMP_temperature;BMP_pressure;BME280_temperature;BME280_humidity;BME280_pressure;Samples;Min_cycle;Max_cycle;Signal;HPM_P1;HPM_P2
2022/06/01 00:01:03;;;;;;;5.63;3.90;;;;;;;15.52;54.31;101293.28;5078028;28;20044;-65
2022/06/01 00:03:33;;;;;;;4.63;3.53;;;;;;;15.51;54.43;101297.06;5082970;28;20055;-65
2022/06/01 00:06:01;;;;;;;4.88;3.20;;;;;;;15.49;54.26;101293.78;5083109;28;20098;-65
2022/06/01 00:08:29;;;;;;;4.85;3.72;;;;;;;15.46;54.51;101297.81;5082975;28;20068;-65
2022/06/01 00:10:58;;;;;;;3.80;3.20;;;;;;;15.42;54.30;101291.22;5079343;28;20170;-65
2022/06/01 00:13:27;;;;;;;4.63;3.38;;;;;;;15.41;54.37;101297.72;5081269;28;20076;-65
2022/06/01 00:15:55;;;;;;;4.10;3.38;;;;;;;15.39;54.30;101310.66;5081990;28;20523;-65
2022/06/01 00:18:23;;;;;;;4.57;3.25;;;;;;;15.38;54.78;101306.31;5078428;28;20079;-66
2022/06/01 00:20:52;;;;;;;7.28;3.65;;;;;;;15.36;54.51;101305.72;5081880;28;20083;-65
2022/06/01 00:23:21;;;;;;;4.57;3.25;;;;;;;15.33;54.65;101298.09;5080055;28;20078;-65
2022/06/01 00:25:49;;;;;;;4.20;3.40;;;;;;;15.32;54.62;101304.56;5081694;28;20048;-65
2022/06/01 00:28:18;;;;;;;4.75;3.67;;;;;;;15.30;54.74;101304.00;5081539;28;20071;-65
2022/06/01 00:30:46;;;;;;;4.20;3.38;;;;;;;15.29;54.50;101305.06;5082708;28;20083;-65
2022/06/01 00:33:14;;;;;;;4.40;3.53;;;;;;;15.28;54.55;101303.41;5083850;28;20144;-65
2022/06/01 00:35:41;;;;;;;4.70;3.30;;;;;;;15.24;54.71;101305.78;5074064;28;20080;-65
2022/06/01 00:38:09;;;;;;;4.38;3.85;;;;;;;15.24;54.68;101311.19;5082758;28;20051;-65
2022/06/01 00:40:39;;;;;;;4.95;3.38;;;;;;;15.23;54.74;101309.56;5082289;28;20066;-65
2022/06/01 00:43:22;;;;;;;5.88;4.05;;;;;;;15.22;54.42;101301.66;5080800;28;20083;-66
2022/06/01 00:45:50;;;;;;;4.45;3.38;;;;;;;15.22;54.49;101312.50;5080621;28;20048;-65
2022/06/01 00:48:20;;;;;;;4.45;3.40;;;;;;;15.21;54.66;101303.56;5077244;28;20048;-65
2022/06/01 00:50:49;;;;;;;3.78;3.38;;;;;;;15.21;54.36;101297.31;5081093;28;20059;-65
2022/06/01 00:53:21;;;;;;;4.72;3.60;;;;;;;15.20;54.78;101298.38;5079243;28;20059;-66
2022/06/01 00:55:54;;;;;;;4.88;4.00;;;;;;;15.20;54.84;101299.22;5079899;28;20045;-66
2022/06/01 00:58:26;;;;;;;4.97;4.07;;;;;;;15.21;54.62;101302.75;5074492;28;20178;-65
2022/06/01 01:00:56;;;;;;;5.35;3.83;;;;;;;15.20;54.59;101306.50;5077471;28;20052;-65
2022/06/01 01:03:27;;;;;;;5.20;4.20;;;;;;;15.17;54.71;101296.97;5080810;28;20044;-65
2022/06/01 01:06:02;;;;;;;5.53;3.83;;;;;;;15.17;54.86;101299.69;5078251;28;20049;-65
2022/06/01 01:08:30;;;;;;;4.65;4.00;;;;;;;15.15;54.95;101301.00;5080919;28;20044;-65
2022/06/01 01:10:57;;;;;;;5.03;3.92;;;;;;;15.15;55.03;101301.81;5081172;28;20131;-65
2022/06/01 01:13:27;;;;;;;5.78;4.43;;;;;;;15.14;55.15;101297.47;5071980;28;20057;-66
2022/06/01 01:15:55;;;;;;;4.88;4.22;;;;;;;15.13;54.66;101303.13;5081976;28;20075;-65
2022/06/01 01:18:27;;;;;;;5.32;4.10;;;;;;;15.13;54.66;101295.00;5074120;28;20151;-65
2022/06/01 01:21:07;;;;;;;6.38;4.72;;;;;;;15.11;54.79;101291.72;5081327;28;20055;-66
2022/06/01 01:23:46;;;;;;;5.22;4.40;;;;;;;15.09;54.99;101291.94;5083907;28;20056;-65
2022/06/01 01:26:16;;;;;;;6.45;4.10;;;;;;;15.08;54.90;101295.72;5079305;28;20321;-65
2022/06/01 01:28:44;;;;;;;6.63;4.68;;;;;;;15.05;54.90;101282.66;5075726;28;20124;-65
2022/06/01 01:31:16;;;;;;;7.28;5.10;;;;;;;15.06;54.70;101289.72;5082312;28;20048;-65
2022/06/01 01:33:45;;;;;;;6.38;5.00;;;;;;;15.04;55.00;101291.84;5080155;28;20072;-65
2022/06/01 01:36:14;;;;;;;6.63;4.65;;;;;;;15.03;54.85;101292.09;5076091;28;20091;-65
2022/06/01 01:38:49;;;;;;;4.90;3.90;;;;;;;15.00;55.06;101293.38;5079889;28;20052;-65
2022/06/01 01:41:26;;;;;;;6.70;5.00;;;;;;;14.99;55.13;101286.34;5081098;28;20044;-65
2022/06/01 01:43:57;;;;;;;;;;;;;;;14.97;54.98;101289.28;5076251;28;20049;-65
2022/06/01 01:46:27;;;;;;;13.43;5.72;;;;;;;14.95;55.10;101288.69;5082965;28;19921;-65
2022/06/01 01:48:55;;;;;;;6.40;4.28;;;;;;;14.94;54.95;101286.22;5080914;28;20113;-65
2022/06/01 01:51:25;;;;;;;5.38;4.68;;;;;;;14.94;55.05;101294.34;5081701;28;20051;-66
2022/06/01 01:53:54;;;;;;;5.50;4.85;;;;;;;14.91;55.01;101292.94;5075399;28;20053;-65
2022/06/01 01:56:39;;;;;;;7.78;4.63;;;;;;;14.89;55.01;101295.06;5082681;28;20386;-65
2022/06/01 01:59:19;;;;;;;6.68;4.55;;;;;;;14.88;55.09;101298.00;5072682;28;20052;-66
2022/06/01 02:01:53;;;;;;;5.63;4.57;;;;;;;14.87;55.16;101296.38;5079525;28;20532;-65
2022/06/01 02:07:22;;;;;;;6.85;5.20;;;;;;;14.84;54.95;101299.56;5078290;28;20052;-65
2022/06/01 02:12:42;;;;;;;6.30;5.15;;;;;;;14.82;54.95;101302.50;5082097;28;20068;-65
2022/06/01 02:15:15;;;;;;;7.68;5.45;;;;;;;14.80;55.13;101307.31;5076754;28;20119;-65
2022/06/01 02:17:49;;;;;;;7.50;5.53;;;;;;;14.79;55.46;101299.44;5082391;28;20454;-65
2022/06/01 02:20:32;;;;;;;6.90;5.22;;;;;;;14.77;55.15;101296.97;5082410;28;20080;-65
2022/06/01 02:23:01;;;;;;;7.45;5.50;;;;;;;14.76;55.24;101300.75;5079677;28;20040;-65
2022/06/01 02:25:30;;;;;;;6.85;5.45;;;;;;;14.76;55.57;101291.81;5085338;28;20044;-65
2022/06/01 02:27:59;;;;;;;6.63;5.25;;;;;;;14.75;55.50;101298.28;5082904;28;20148;-65
2022/06/01 02:30:30;;;;;;;6.95;5.72;;;;;;;14.74;55.14;101302.88;5085509;28;20068;-65
2022/06/01 02:33:00;;;;;;;9.23;6.28;;;;;;;14.74;55.29;101296.63;5079283;28;20048;-65
2022/06/01 02:35:31;;;;;;;12.18;6.10;;;;;;;14.74;55.07;101302.03;5085779;28;20379;-65
2022/06/01 02:38:01;;;;;;;8.38;5.85;;;;;;;14.73;55.28;101297.69;5070691;28;20044;-65
2022/06/01 02:40:29;;;;;;;7.95;6.60;;;;;;;14.70;55.06;101293.59;5086172;28;20091;-65
2022/06/01 02:42:59;;;;;;;8.07;6.25;;;;;;;14.70;55.16;101301.69;5079340;28;20049;-65
2022/06/01 02:45:28;;;;;;;8.30;5.78;;;;;;;14.69;55.00;101302.75;5085900;28;20060;-65
2022/06/01 02:47:59;;;;;;;9.05;6.35;;;;;;;14.64;54.99;101297.25;5081605;28;20152;-65
2022/06/01 02:50:30;;;;;;;8.45;6.13;;;;;;;14.68;55.05;101298.41;5083192;28;20101;-65
2022/06/01 02:52:58;;;;;;;9.02;6.88;;;;;;;14.66;54.85;101295.13;5086554;28;20044;-65
2022/06/01 02:55:28;;;;;;;7.43;6.47;;;;;;;14.65;55.29;101304.28;5081203;28;20052;-65
2022/06/01 02:57:56;;;;;;;10.50;7.00;;;;;;;14.65;54.93;101307.00;5082813;28;20062;-66
2022/06/01 03:00:27;;;;;;;8.50;6.95;;;;;;;14.63;54.92;101301.00;5082989;28;20045;-65
2022/06/01 03:02:57;;;;;;;8.77;6.82;;;;;;;14.62;55.41;101300.19;5081216;28;20053;-65
2022/06/01 03:05:27;;;;;;;8.70;6.35;;;;;;;14.62;55.21;101302.88;5086710;28;20040;-65
2022/06/01 03:07:55;;;;;;;9.82;6.32;;;;;;;14.60;55.22;101305.00;5082950;28;20071;-65
2022/06/01 03:10:23;;;;;;;7.70;6.28;;;;;;;14.59;55.39;101303.38;5080624;28;20080;-65
2022/06/01 03:12:51;;;;;;;8.27;6.45;;;;;;;14.58;55.21;101312.53;5078387;28;20063;-65
2022/06/01 03:15:21;;;;;;;7.88;6.35;;;;;;;14.57;55.03;101307.34;5084907;28;20072;-65
2022/06/01 03:17:51;;;;;;;8.10;6.40;;;;;;;14.54;55.21;101300.53;5084092;28;20560;-65
2022/06/01 03:20:21;;;;;;;7.72;5.97;;;;;;;14.53;55.10;101306.19;5082661;28;20080;-65
2022/06/01 03:22:56;;;;;;;8.15;6.38;;;;;;;14.51;55.42;101302.91;5083416;28;20112;-65
2022/06/01 03:25:25;;;;;;;7.85;5.45;;;;;;;14.46;55.29;101300.06;5084727;28;20049;-65
2022/06/01 03:27:54;;;;;;;7.75;6.30;;;;;;;14.48;55.23;101300.66;5082242;28;20052;-65
2022/06/01 03:30:22;;;;;;;11.02;6.25;;;;;;;14.46;55.18;101306.31;5082235;28;20080;-65
2022/06/01 03:32:52;;;;;;;8.23;6.13;;;;;;;14.44;55.16;101299.50;5073935;28;20048;-65
2022/06/01 03:35:22;;;;;;;6.70;5.63;;;;;;;14.42;55.14;101301.63;5082845;28;20067;-65
2022/06/01 03:37:50;;;;;;;8.77;5.55;;;;;;;14.42;55.23;101299.72;5084344;28;20064;-65
2022/06/01 03:40:20;;;;;;;6.22;4.97;;;;;;;14.42;54.84;101301.63;5078597;28;20121;-65
2022/06/01 03:42:48;;;;;;;10.60;6.63;;;;;;;14.41;54.90;101294.53;5070697;28;20063;-65
2022/06/01 03:48:03;;;;;;;8.85;5.50;;;;;;;14.38;55.12;101295.81;5079460;28;20052;-65
2022/06/01 03:50:32;;;;;;;10.43;7.25;;;;;;;14.37;54.75;101299.59;5079820;28;20055;-65
2022/06/01 03:53:00;;;;;;;6.03;5.20;;;;;;;14.36;55.11;101302.53;5083961;28;20159;-65
2022/06/01 03:55:28;;;;;;;6.55;5.47;;;;;;;14.35;55.21;101299.00;5069082;28;20052;-65
2022/06/01 03:57:56;;;;;;;8.05;5.28;;;;;;;14.33;54.87;101295.72;5077725;28;20052;-65
2022/06/01 04:00:26;;;;;;;8.13;5.68;;;;;;;14.33;55.07;101290.28;5079298;28;20521;-65
2022/06/01 04:02:55;;;;;;;8.55;4.93;;;;;;;14.32;55.13;101302.16;5079422;28;20040;-65
2022/06/01 04:05:24;;;;;;;6.57;4.85;;;;;;;14.31;55.19;101301.34;5084309;28;20040;-65
2022/06/01 04:07:52;;;;;;;7.85;5.45;;;;;;;14.31;54.90;101311.34;5080983;28;20079;-65
2022/06/01 04:10:21;;;;;;;7.97;5.90;;;;;;;14.30;54.75;101315.91;5083916;28;20136;-65
2022/06/01 04:12:49;;;;;;;7.38;5.32;;;;;;;14.30;55.23;101307.81;5077978;28;20109;-65
2022/06/01 04:15:17;;;;;;;7.55;4.78;;;;;;;14.29;54.77;101308.88;5076727;28;20084;-65
2022/06/01 04:17:45;;;;;;;8.98;5.60;;;;;;;14.29;54.85;101319.69;5073381;28;20056;-65
2022/06/01 04:20:13;;;;;;;6.95;5.57;;;;;;;14.28;54.86;101326.16;5077423;28;20076;-65
2022/06/01 04:22:44;;;;;;;5.63;4.63;;;;;;;14.26;55.17;101312.03;5075127;28;20504;-65
2022/06/01 04:25:16;;;;;;;7.18;5.30;;;;;;;14.24;55.14;101316.88;5078746;28;20055;-65
2022/06/01 04:27:44;;;;;;;8.85;4.82;;;;;;;14.26;54.94;101316.63;5080012;28;20048;-65
2022/06/01 04:30:17;;;;;;;6.30;4.72;;;;;;;14.26;54.79;101319.34;5074916;28;20112;-65
2022/06/01 04:32:47;;;;;;;7.13;4.72;;;;;;;14.25;54.61;101317.69;5070684;28;20052;-65
2022/06/01 04:35:16;;;;;;;7.38;5.00;;;;;;;14.22;54.95;101318.97;5073602;28;20067;-65
2022/06/01 04:37:45;;;;;;;7.07;4.60;;;;;;;14.23;54.93;101315.22;5081723;28;20127;-65
2022/06/01 04:40:14;;;;;;;8.88;4.80;;;;;;;14.22;55.03;101324.38;5078917;28;20052;-65
2022/06/01 04:42:43;;;;;;;6.18;4.20;;;;;;;14.21;55.01;101321.91;5078552;28;20080;-65
2022/06/01 04:45:13;;;;;;;7.03;4.68;;;;;;;14.20;54.57;101320.28;5080466;28;20072;-66
2022/06/01 04:47:42;;;;;;;7.80;4.35;;;;;;;14.20;54.87;101318.38;5082664;28;20051;-66
2022/06/01 04:50:10;;;;;;;8.88;4.60;;;;;;;14.19;55.04;101324.84;5082182;28;20044;-66
2022/06/01 04:52:38;;;;;;;9.52;4.68;;;;;;;14.18;55.12;101328.59;5077765;28;20108;-67
2022/06/01 04:55:08;;;;;;;8.43;4.13;;;;;;;14.18;54.53;101325.91;5084206;28;20063;-67
2022/06/01 04:57:37;;;;;;;5.85;4.18;;;;;;;14.09;54.65;101313.78;5082393;28;20051;-67
2022/06/01 05:00:06;;;;;;;7.55;4.50;;;;;;;14.17;55.06;101328.84;5076554;28;20148;-66
2022/06/01 05:02:34;;;;;;;7.00;4.63;;;;;;;14.15;55.07;101320.97;5073453;28;20056;-68
2022/06/01 05:05:02;;;;;;;7.40;4.40;;;;;;;14.12;54.75;101321.44;5080723;28;20072;-69
2022/06/01 05:07:30;;;;;;;5.97;4.45;;;;;;;14.14;55.08;101324.72;5081327;28;20067;-68
2022/06/01 05:09:57;;;;;;;6.97;3.75;;;;;;;14.13;54.82;101327.66;5084130;28;20044;-65
2022/06/01 05:12:27;;;;;;;6.18;3.88;;;;;;;14.12;55.36;101321.44;5074496;28;20084;-66
2022/06/01 05:14:54;;;;;;;5.60;3.45;;;;;;;14.13;55.00;101331.19;5086388;28;20209;-67
2022/06/01 05:17:22;;;;;;;7.22;4.80;;;;;;;14.14;55.45;101326.59;5082777;28;20052;-66
2022/06/01 05:19:50;;;;;;;7.70;4.03;;;;;;;14.14;55.10;101321.19;5082724;28;20076;-65
2022/06/01 05:22:17;;;;;;;9.50;3.63;;;;;;;14.15;55.28;101320.97;5081835;28;20527;-68
2022/06/01 05:24:45;;;;;;;6.60;3.75;;;;;;;14.17;55.63;101321.56;4373259;28;10000071;-69
2022/06/01 05:27:13;;;;;;;6.85;4.65;;;;;;;14.13;55.27;101314.97;5065575;28;20087;-66
2022/06/01 05:29:42;;;;;;;7.97;3.42;;;;;;;14.18;55.43;101323.19;5077498;28;20076;-71
2022/06/01 05:32:11;;;;;;;6.75;3.70;;;;;;;14.20;55.31;101322.97;5078383;28;20064;-67
2022/06/01 05:34:39;;;;;;;5.72;4.10;;;;;;;14.22;55.47;101321.69;5077108;28;20060;-68
2022/06/01 05:37:07;;;;;;;7.75;3.75;;;;;;;14.24;55.42;101319.56;5075845;28;20048;-69
2022/06/01 05:39:35;;;;;;;5.38;3.40;;;;;;;14.29;55.57;101321.56;5085035;28;20075;-65
2022/06/01 05:42:03;;;;;;;7.43;3.53;;;;;;;14.32;55.93;101329.22;5070702;28;20079;-64
2022/06/01 05:44:31;;;;;;;9.05;3.78;;;;;;;14.35;55.56;101328.75;5076840;28;20082;-67
2022/06/01 05:47:04;;;;;;;7.35;3.63;;;;;;;14.34;55.54;101319.81;5075650;28;20528;-66
2022/06/01 05:49:32;;;;;;;5.30;3.63;;;;;;;14.39;56.01;101326.38;5083178;28;20090;-67
2022/06/01 05:52:00;;;;;;;7.47;3.53;;;;;;;14.41;56.03;101324.28;5085064;28;20520;-67
2022/06/01 05:54:27;;;;;;;4.60;2.90;;;;;;;14.41;56.36;101329.69;5080427;28;20501;-68
2022/06/01 05:56:55;;;;;;;8.35;3.92;;;;;;;14.43;56.17;101328.41;5078062;28;20048;-67
2022/06/01 05:59:25;;;;;;;7.43;4.28;;;;;;;14.45;56.00;101334.41;5078805;28;20059;-67
2022/06/01 06:01:53;;;;;;;6.57;3.30;;;;;;;14.47;55.90;101328.78;5083980;28;20055;-67
2022/06/01 06:04:22;;;;;;;4.70;2.90;;;;;;;14.49;55.73;101340.19;5082306;28;20158;-68
2022/06/01 06:06:49;;;;;;;5.38;3.25;;;;;;;14.51;56.37;101346.16;5082255;28;20048;-67
2022/06/01 06:09:17;;;;;;;7.10;3.08;;;;;;;14.51;56.18;101333.47;5080043;28;20080;-68
2022/06/01 06:11:45;;;;;;;5.15;3.08;;;;;;;14.53;55.85;101346.75;5076729;28;20052;-68
2022/06/01 06:14:13;;;;;;;6.10;3.42;;;;;;;14.54;56.24;101340.28;5080809;28;20112;-66
2022/06/01 06:16:43;;;;;;;11.35;4.25;;;;;;;14.55;57.12;101350.88;4723246;28;10000638;-65
2022/06/01 06:19:11;;;;;;;10.00;3.78;;;;;;;14.54;57.20;101359.22;5086552;28;20068;-66
2022/06/01 06:21:41;;;;;;;8.07;3.55;;;;;;;14.57;56.62;101356.88;5083087;28;20056;-67
2022/06/01 06:24:11;;;;;;;6.97;3.92;;;;;;;14.57;57.07;101359.56;5082714;28;20550;-67
2022/06/01 06:26:41;;;;;;;5.03;3.22;;;;;;;14.58;57.08;101365.81;5086431;28;20055;-66
2022/06/01 06:29:10;;;;;;;8.77;3.35;;;;;;;14.59;56.96;101362.88;5079992;28;20168;-66
2022/06/01 06:31:38;;;;;;;5.28;3.40;;;;;;;14.61;56.98;101363.47;5082904;28;20083;-65
2022/06/01 06:34:13;;;;;;;8.07;2.70;;;;;;;14.64;56.93;101362.16;5077350;28;20057;-69
2022/06/01 06:36:44;;;;;;;8.85;3.65;;;;;;;14.69;57.12;101367.69;5083081;28;20064;-69
2022/06/01 06:39:13;;;;;;;6.13;3.30;;;;;;;14.70;57.08;101372.03;5085379;28;20048;-71
2022/06/01 06:41:40;;;;;;;5.03;2.80;;;;;;;14.73;57.57;101371.56;5078089;28;20057;-68
2022/06/01 06:44:08;;;;;;;7.97;3.10;;;;;;;14.77;57.15;101380.84;5085473;28;20440;-68
2022/06/01 06:46:36;;;;;;;8.30;3.60;;;;;;;14.80;57.26;101374.16;5083802;28;20094;-69
2022/06/01 06:49:04;;;;;;;5.97;2.75;;;;;;;14.81;56.84;101379.31;5086271;28;20091;-68
2022/06/01 06:51:35;;;;;;;5.75;2.70;;;;;;;14.83;56.70;101387.22;5080227;28;20072;-68
2022/06/01 06:54:05;;;;;;;8.48;3.55;;;;;;;14.83;57.08;101388.03;5085319;28;20186;-64
2022/06/01 06:56:34;;;;;;;6.82;3.15;;;;;;;14.84;56.84;101386.97;5071540;28;20052;-64
2022/06/01 06:59:02;;;;;;;9.10;3.30;;;;;;;14.84;57.14;101389.69;5084739;28;20090;-65
2022/06/01 07:01:29;;;;;;;7.45;3.10;;;;;;;14.83;56.67;101388.03;5079007;28;20076;-65
2022/06/01 07:03:58;;;;;;;7.45;2.67;;;;;;;14.83;56.86;101392.63;5086075;28;20049;-69
2022/06/01 07:06:26;;;;;;;5.82;3.28;;;;;;;14.84;56.91;101399.69;5084626;28;20052;-67
2022/06/01 07:08:55;;;;;;;9.23;2.95;;;;;;;14.82;57.30;101399.91;5085805;28;20044;-66
2022/06/01 07:11:28;;;;;;;7.25;2.72;;;;;;;14.86;57.30;101403.78;5078097;28;20049;-66
2022/06/01 07:13:58;;;;;;;4.82;2.63;;;;;;;14.88;57.56;101401.69;5085154;28;20056;-66
2022/06/01 07:16:28;;;;;;;6.43;3.22;;;;;;;14.90;57.12;101402.25;5079746;28;20049;-66
2022/06/01 07:18:58;;;;;;;6.35;3.00;;;;;;;14.91;57.17;101398.50;5085912;28;20055;-66
2022/06/01 07:21:28;;;;;;;7.03;2.95;;;;;;;14.91;57.56;101398.50;5081340;28;20044;-67
2022/06/01 07:23:59;;;;;;;7.40;3.13;;;;;;;14.92;57.30;101396.63;5082849;28;20055;-67
2022/06/01 07:26:33;;;;;;;6.32;3.08;;;;;;;14.92;57.73;101397.44;5082248;28;20052;-67
2022/06/01 07:29:01;;;;;;;8.02;2.85;;;;;;;14.94;57.47;101405.31;5064376;28;20525;-67
2022/06/01 07:31:29;;;;;;;7.72;2.70;;;;;;;14.94;57.67;101399.91;5078554;28;20150;-68
2022/06/01 07:33:59;;;;;;;3.33;2.25;;;;;;;14.95;57.25;101409.66;5077968;28;20465;-68
2022/06/01 07:36:27;;;;;;;4.47;2.20;;;;;;;14.96;57.47;101409.44;5078251;28;20052;-67
2022/06/01 07:44:32;;;;;;;5.57;2.53;;;;;;;15.00;57.62;101404.38;5076051;28;20466;-67
2022/06/01 07:47:00;;;;;;;6.97;2.88;;;;;;;15.00;57.67;101398.13;5071771;28;20080;-67
2022/06/01 07:49:48;;;;;;;6.25;2.55;;;;;;;15.03;57.82;101401.19;5082824;28;20139;-67
2022/06/01 07:52:35;;;;;;;5.97;2.45;;;;;;;15.05;57.87;101401.78;5082952;28;20140;-67
2022/06/01 07:55:04;;;;;;;5.63;2.47;;;;;;;15.06;57.71;101405.31;5084047;28;20124;-68
2022/06/01 07:57:33;;;;;;;6.82;2.28;;;;;;;15.09;57.95;101404.84;5083225;28;20041;-68
2022/06/01 08:00:01;;;;;;;5.55;2.30;;;;;;;15.11;57.99;101405.41;5080846;28;20052;-67
2022/06/01 08:02:28;;;;;;;5.88;2.70;;;;;;;15.12;57.61;101407.88;5081800;28;20044;-67
2022/06/01 08:04:56;;;;;;;3.05;1.90;;;;;;;15.11;57.51;101405.41;5084775;28;20462;-66
2022/06/01 08:07:24;;;;;;;7.53;2.60;;;;;;;15.16;57.58;101411.75;5081588;28;20052;-68
2022/06/01 08:09:52;;;;;;;2.90;1.90;;;;;;;15.14;57.47;101405.75;5085040;28;20048;-67
2022/06/01 08:15:08;;;;;;;8.15;2.65;;;;;;;15.19;57.81;101402.34;5076900;28;20083;-67
2022/06/01 08:17:44;;;;;;;4.80;1.92;;;;;;;15.21;57.74;101400.22;5081728;28;20040;-66
2022/06/01 08:20:12;;;;;;;6.15;2.25;;;;;;;15.23;57.63;101407.03;5074443;28;20052;-66
2022/06/01 08:22:41;;;;;;;5.55;2.28;;;;;;;15.26;57.50;101405.75;5084604;28;20059;-65
2022/06/01 08:25:11;;;;;;;7.50;2.00;;;;;;;15.28;57.32;101406.31;5084390;28;20040;-66
2022/06/01 08:27:38;;;;;;;4.07;2.00;;;;;;;15.27;57.37;101405.50;5082038;28;20044;-66
2022/06/01 08:30:09;;;;;;;10.02;2.20;;;;;;;15.33;57.78;101405.59;5076547;28;20072;-66
2022/06/01 08:32:37;;;;;;;3.85;2.08;;;;;;;15.33;57.57;101395.59;5082785;28;20449;-66
2022/06/01 08:35:06;;;;;;;5.03;1.88;;;;;;;15.35;57.21;101395.34;5078316;28;20045;-66
2022/06/01 08:37:34;;;;;;;3.47;2.03;;;;;;;15.38;57.17;101400.28;5083515;28;20040;-66
2022/06/01 08:40:01;;;;;;;4.90;1.90;;;;;;;15.40;56.69;101398.16;5079157;28;20045;-66
2022/06/01 08:42:29;;;;;;;5.50;1.85;;;;;;;15.41;56.69;101397.94;5084026;28;20052;-66
2022/06/01 08:45:03;;;;;;;5.90;2.30;;;;;;;15.41;56.78;101400.63;5083890;28;20146;-67
2022/06/01 08:47:36;;;;;;;5.70;2.28;;;;;;;15.41;56.60;101397.09;5082762;28;20048;-66
2022/06/01 08:50:07;;;;;;;2.50;1.58;;;;;;;15.44;56.64;101404.75;5067693;28;20063;-65
2022/06/01 08:52:35;;;;;;;4.57;1.90;;;;;;;15.44;56.55;101402.03;5083103;28;20048;-65
2022/06/01 08:55:03;;;;;;;3.83;1.73;;;;;;;15.44;56.68;101400.16;5076764;28;20051;-66
2022/06/01 08:57:43;;;;;;;3.60;1.83;;;;;;;15.46;56.25;101408.03;5082774;28;20087;-66
2022/06/01 09:00:15;;;;;;;2.97;1.60;;;;;;;15.48;56.73;101404.03;5083248;28;20136;-66
2022/06/01 09:02:55;;;;;;;5.05;1.92;;;;;;;15.42;56.29;101390.63;5077102;28;20486;-65
2022/06/01 09:05:27;;;;;;;3.63;1.65;;;;;;;15.58;56.82;101408.84;5081368;28;20131;-65
2022/06/01 09:08:02;;;;;;;4.45;1.70;;;;;;;15.59;56.34;101419.44;5077548;28;20044;-65
2022/06/01 09:10:51;;;;;;;5.20;2.13;;;;;;;15.62;56.26;101413.53;5083988;28;20048;-66
2022/06/01 09:13:24;;;;;;;3.90;1.80;;;;;;;15.66;55.97;101416.56;5080978;28;20080;-65
2022/06/01 09:15:56;;;;;;;6.35;1.60;;;;;;;15.68;55.78;101413.63;5072337;28;20055;-66
2022/06/01 09:18:29;;;;;;;2.40;1.30;;;;;;;15.70;55.99;101415.03;5083472;28;20052;-66
2022/06/01 09:23:44;;;;;;;5.70;1.70;;;;;;;15.70;55.45;101412.31;5073060;28;20075;-67
2022/06/01 09:26:24;;;;;;;2.70;1.38;;;;;;;15.71;55.38;101413.97;5082211;28;20053;-68
2022/06/01 09:28:55;;;;;;;2.00;1.50;;;;;;;15.71;55.42;101405.81;5076787;28;20052;-66
2022/06/01 09:31:28;;;;;;;4.30;1.80;;;;;;;15.73;55.24;101408.28;5079397;28;20051;-67
2022/06/01 09:34:27;;;;;;;3.15;1.48;;;;;;;15.76;55.60;101402.38;5078973;28;20063;-67
2022/06/01 09:37:03;;;;;;;3.25;1.73;;;;;;;15.79;55.60;101399.19;5078045;28;20075;-68
2022/06/01 09:39:33;;;;;;;3.97;1.95;;;;;;;15.82;55.23;101398.72;5083372;28;20064;-68
2022/06/01 09:42:15;;;;;;;2.53;1.30;;;;;;;15.84;55.21;101400.09;5075962;28;20127;-68
2022/06/01 09:44:49;;;;;;;4.72;1.85;;;;;;;15.84;54.98;101408.25;5081957;28;20063;-68
2022/06/01 09:47:40;;;;;;;5.43;1.70;;;;;;;15.85;54.68;101406.34;5082486;28;20044;-68
2022/06/01 09:50:23;;;;;;;2.83;1.70;;;;;;;15.87;54.69;101409.66;5073053;28;20086;-68
2022/06/01 09:52:56;;;;;;;1.95;1.55;;;;;;;15.87;54.59;101404.22;5083813;28;20048;-68
2022/06/01 09:55:26;;;;;;;3.35;1.50;;;;;;;15.88;54.78;101406.69;5077630;28;20122;-69
2022/06/01 09:58:03;;;;;;;2.70;1.52;;;;;;;15.89;54.66;101399.38;5080269;28;20051;-68
2022/06/01 10:06:24;;;;;;;1.92;1.25;;;;;;;15.90;54.31;101401.03;5081567;28;20088;-67
2022/06/01 10:08:59;;;;;;;4.85;1.42;;;;;;;15.92;54.41;101401.59;5078530;28;20048;-67
2022/06/01 10:11:36;;;;;;;3.35;2.17;;;;;;;15.93;54.28;101416.81;5077839;28;20083;-67
2022/06/01 10:14:12;;;;;;;2.88;1.90;;;;;;;15.96;54.45;101416.31;5079370;28;20052;-68
2022/06/01 10:16:53;;;;;;;9.00;2.45;;;;;;;15.97;54.17;101412.53;5080753;28;20056;-68
2022/06/01 10:19:26;;;;;;;3.35;2.00;;;;;;;15.98;54.48;101416.91;5080838;28;20058;-68
2022/06/01 10:22:00;;;;;;;3.70;1.70;;;;;;;15.98;54.24;101408.75;5080142;28;20044;-68
2022/06/01 10:24:33;;;;;;;2.90;1.60;;;;;;;16.01;54.46;101423.72;5079877;28;20059;-68
2022/06/01 10:27:03;;;;;;;5.75;2.13;;;;;;;15.99;53.96;101429.38;5079359;28;21190;-67
2022/06/01 10:29:36;;;;;;;2.53;1.80;;;;;;;16.00;53.77;101441.88;5079031;28;20089;-68
2022/06/01 10:32:09;;;;;;;5.32;1.90;;;;;;;15.98;53.94;101445.91;5083576;28;20048;-68
2022/06/01 10:34:44;;;;;;;4.90;2.40;;;;;;;15.91;53.85;101438.72;5085833;28;20086;-67
2022/06/01 10:37:21;;;;;;;5.15;2.42;;;;;;;15.91;53.53;101451.47;5084971;28;20128;-68
2022/06/01 10:39:52;;;;;;;4.13;2.05;;;;;;;15.87;53.32;101470.09;5086298;28;20049;-68
2022/06/01 10:43:16;;;;;;;2.67;1.83;;;;;;;15.84;53.37;101480.59;5083308;28;20040;-68
2022/06/01 10:45:15;;;;;;;3.63;2.33;;;;;;;15.79;53.61;101488.63;5085540;28;20048;-69
2022/06/01 10:48:00;;;;;;;5.85;2.42;;;;;;;15.74;54.37;101480.41;5084614;28;20061;-68
2022/06/01 10:50:32;;;;;;;5.45;1.73;;;;;;;15.72;54.83;101467.09;5074905;28;20045;-68
2022/06/01 10:53:05;;;;;;;4.93;1.95;;;;;;;15.69;55.06;101459.44;5073204;28;20456;-68
2022/06/01 10:55:39;;;;;;;5.70;1.75;;;;;;;15.68;55.57;101457.78;5085107;28;20052;-68
2022/06/01 10:58:08;;;;;;;6.50;1.73;;;;;;;15.67;55.49;101467.00;5080799;28;20053;-67
2022/06/01 11:00:49;;;;;;;2.20;1.40;;;;;;;15.68;56.07;101470.53;5083939;28;20068;-69
2022/06/01 11:03:41;;;;;;;2.20;1.40;;;;;;;15.66;56.22;101470.75;5076863;28;20182;-68
2022/06/01 11:06:23;;;;;;;3.15;1.67;;;;;;;15.65;55.97;101466.41;5081462;28;20041;-67
2022/06/01 11:09:03;;;;;;;5.30;1.50;;;;;;;15.65;56.02;101469.13;5084943;28;20443;-66
2022/06/01 11:11:40;;;;;;;3.15;1.38;;;;;;;15.66;55.77;101481.59;5072501;28;20064;-66
2022/06/01 11:14:20;;;;;;;2.75;1.42;;;;;;;15.68;55.95;101471.34;5079250;28;20068;-64
2022/06/01 11:16:58;;;;;;;3.05;1.55;;;;;;;15.70;56.21;101481.94;5085336;28;20075;-63
2022/06/01 11:19:41;;;;;;;3.38;1.40;;;;;;;15.73;56.31;101476.03;5084472;28;20053;-64
2022/06/01 11:22:24;;;;;;;4.28;1.40;;;;;;;15.74;56.46;101480.41;5083060;28;20711;-64
2022/06/01 11:25:08;;;;;;;3.33;1.60;;;;;;;15.74;56.21;101489.34;5085665;28;20143;-65
2022/06/01 11:27:47;;;;;;;4.00;1.40;;;;;;;15.73;56.19;101495.84;5085537;28;20063;-65
2022/06/01 11:30:19;;;;;;;3.42;1.40;;;;;;;15.73;55.97;101495.00;5082886;28;20072;-67
2022/06/01 11:32:54;;;;;;;4.35;1.80;;;;;;;15.73;55.94;101497.72;5086046;28;20386;-67
2022/06/01 11:35:33;;;;;;;3.47;1.30;;;;;;;15.71;55.89;101492.53;5074669;28;20049;-66
2022/06/01 11:38:06;;;;;;;2.38;1.60;;;;;;;15.69;55.84;101505.50;5085860;28;20086;-66
2022/06/01 11:40:48;;;;;;;3.13;1.48;;;;;;;15.71;55.86;101507.97;5083058;28;20063;-66
2022/06/01 11:43:27;;;;;;;2.35;1.50;;;;;;;15.71;55.87;101513.41;5076312;28;20490;-66
2022/06/01 11:45:56;;;;;;;2.20;1.70;;;;;;;15.71;56.39;101511.50;5084644;28;20067;-66
2022/06/01 11:48:29;;;;;;;6.78;1.30;;;;;;;15.71;56.20;101508.81;5084614;28;20044;-66
2022/06/01 11:51:11;;;;;;;3.15;1.50;;;;;;;15.71;56.33;101503.38;5072563;28;20053;-66
2022/06/01 11:54:00;;;;;;;3.38;1.45;;;;;;;15.71;56.30;101502.56;5083813;28;20125;-66
2022/06/01 11:56:43;;;;;;;3.47;1.40;;;;;;;15.71;56.77;101497.97;5077183;28;20071;-66
2022/06/01 11:59:21;;;;;;;2.72;1.48;;;;;;;15.70;56.52;101493.59;5083787;28;20037;-67
2022/06/01 12:01:56;;;;;;;3.67;1.63;;;;;;;15.70;56.58;101490.91;5082446;28;20051;-67
2022/06/01 12:04:29;;;;;;;2.45;1.23;;;;;;;15.70;56.90;101485.47;5084696;28;20425;-67
2022/06/01 12:07:08;;;;;;;1.63;1.20;;;;;;;15.71;56.51;101492.53;5073025;28;20088;-67
2022/06/01 12:09:41;;;;;;;2.42;1.30;;;;;;;15.72;56.92;101490.66;5074308;28;20076;-66